Time;durP1;ratioP1;P1;durP2;ratioP2;P2;SDS_P1;SDS_P2;PMS_P1;PMS_P2;Temp;Humidity;BMP_temperature;BMP_pressure;BME280_temperature;BME280_humidity;BME280_pressure;Samples;Min_cycle;Max_cycle;Signal;HPM_P1;HPM_P2
2022/05/02 00:01:42;;;;;;;19.63;11.17;;;;;;;10.84;67.00;100475.88;1479430;88;21911;-88
2022/05/02 00:04:08;;;;;;;17.07;10.73;;;;;;;10.81;66.82;100473.03;1447302;88;21463;-87
2022/05/02 00:06:34;;;;;;;19.70;10.67;;;;;;;10.78;65.42;100465.38;1475005;88;21890;-87
2022/05/02 00:09:01;;;;;;;22.97;10.80;;;;;;;10.75;64.93;100467.00;1472436;88;21434;-87
2022/05/02 00:11:27;;;;;;;24.00;14.83;;;;;;;10.78;64.75;100465.38;1476818;88;21489;-87
2022/05/02 00:13:53;;;;;;;16.83;11.03;;;;;;;10.82;64.98;100465.95;1475081;88;21561;-86
2022/05/02 00:16:20;;;;;;;16.40;9.37;;;;;;;10.81;64.67;100463.77;1460460;88;22417;-87
2022/05/02 00:18:46;;;;;;;14.13;9.40;;;;;;;10.82;64.89;100456.68;1458737;86;21478;-87
2022/05/02 00:21:12;;;;;;;24.43;13.53;;;;;;;10.84;64.54;100463.47;1455086;88;21508;-87
2022/05/02 00:23:38;;;;;;;19.47;11.37;;;;;;;10.85;65.03;100463.00;1453934;88;21537;-86
2022/05/02 00:26:04;;;;;;;12.60;8.53;;;;;;;10.80;65.36;100459.46;1471061;88;22411;-87
2022/05/02 00:28:30;;;;;;;12.90;7.83;;;;;;;10.79;64.61;100456.48;1461143;88;22412;-87
2022/05/02 00:30:56;;;;;;;13.33;8.10;;;;;;;10.81;64.07;100461.61;1480781;88;21389;-85
2022/05/02 00:33:22;;;;;;;15.47;8.83;;;;;;;10.81;63.29;100463.77;1456087;88;22352;-86
2022/05/02 00:35:48;;;;;;;10.10;6.67;;;;;;;10.84;63.35;100462.14;1433863;88;21500;-86
2022/05/02 00:38:15;;;;;;;13.50;7.93;;;;;;;10.86;62.81;100459.86;1483548;88;21663;-85
2022/05/02 00:40:41;;;;;;;14.57;8.53;;;;;;;10.88;63.20;100464.52;1479790;88;21517;-87
2022/05/02 00:43:07;;;;;;;15.03;8.20;;;;;;;10.88;62.85;100460.55;1486188;88;21509;-86
2022/05/02 00:45:37;;;;;;;12.37;7.17;;;;;;;10.89;62.72;100463.03;1458702;89;21530;-87
2022/05/02 00:48:04;;;;;;;9.28;6.55;;;;;;;10.86;62.21;100458.53;1462403;88;21575;-86
2022/05/02 00:50:41;;;;;;;23.17;7.07;;;;;;;10.83;61.40;100456.52;1447646;89;21471;-86
2022/05/02 00:53:12;;;;;;;8.70;5.47;;;;;;;10.88;61.32;100461.38;1447964;88;21399;-87
2022/05/02 00:55:39;;;;;;;10.10;5.80;;;;;;;10.93;60.78;100463.06;1481887;88;21436;-85
2022/05/02 00:58:06;;;;;;;9.47;6.17;;;;;;;10.99;60.29;100460.31;1485865;88;22460;-85
2022/05/02 01:00:36;;;;;;;8.03;5.60;;;;;;;11.03;59.79;100457.73;1467434;88;21500;-85
2022/05/02 01:03:05;;;;;;;15.13;6.08;;;;;;;11.07;59.19;100449.31;1457000;88;21407;-85
2022/05/02 01:05:33;;;;;;;8.43;5.30;;;;;;;11.12;58.95;100455.99;1473133;88;21560;-86
2022/05/02 01:07:59;;;;;;;7.10;4.67;;;;;;;11.12;59.03;100455.99;1478791;88;22438;-87
2022/05/02 01:10:26;;;;;;;10.30;5.23;;;;;;;11.12;59.06;100456.81;1469174;88;21693;-88
2022/05/02 01:12:53;;;;;;;7.93;5.70;;;;;;;11.13;59.25;100457.64;1460429;88;21662;-84
2022/05/02 01:15:19;;;;;;;11.80;5.90;;;;;;;11.12;59.17;100455.49;1461956;88;22380;-84
2022/05/02 01:17:45;;;;;;;12.10;6.23;;;;;;;11.11;59.12;100453.02;1463388;88;21434;-88
2022/05/02 01:20:14;;;;;;;7.70;5.00;;;;;;;11.11;59.21;100458.31;1477993;88;21613;-86
2022/05/02 01:22:42;;;;;;;8.30;5.50;;;;;;;11.09;59.70;100453.15;1476323;88;21488;-86
2022/05/02 01:25:09;;;;;;;10.30;6.33;;;;;;;11.05;60.63;100451.80;1483937;87;21574;-87
2022/05/02 01:27:36;;;;;;;12.83;6.00;;;;;;;11.01;60.63;100455.70;1442830;88;21463;-86
2022/05/02 01:30:03;;;;;;;8.87;6.07;;;;;;;10.96;61.30;100456.64;1472355;88;21618;-86
2022/05/02 01:32:29;;;;;;;14.87;5.47;;;;;;;10.96;62.09;100460.61;1479123;88;21486;-86
2022/05/02 01:34:55;;;;;;;9.37;5.63;;;;;;;10.96;62.68;100461.94;1458874;88;21427;-86
2022/05/02 01:37:21;;;;;;;8.27;5.67;;;;;;;10.98;63.03;100456.84;1470949;88;21448;-86
2022/05/02 01:39:47;;;;;;;19.40;6.10;;;;;;;11.00;62.67;100462.00;1478280;87;21442;-85
2022/05/02 01:42:13;;;;;;;8.73;6.27;;;;;;;11.05;62.40;100474.30;1456116;88;21414;-86
2022/05/02 01:44:40;;;;;;;10.50;6.70;;;;;;;11.02;62.07;100461.36;1477443;88;21429;-87
2022/05/02 01:47:08;;;;;;;9.93;6.30;;;;;;;11.03;61.83;100477.59;1475805;88;21536;-86
2022/05/02 01:49:34;;;;;;;16.77;7.00;;;;;;;11.04;61.97;100475.27;1431766;88;22417;-86
2022/05/02 01:52:01;;;;;;;17.53;7.20;;;;;;;11.04;61.97;100476.59;1475847;88;21581;-86
2022/05/02 01:54:30;;;;;;;9.23;6.20;;;;;;;11.00;62.30;100479.21;1468631;88;21605;-86
2022/05/02 01:56:56;;;;;;;9.70;6.73;;;;;;;10.97;61.95;100478.19;1475675;88;21463;-86
2022/05/02 01:59:22;;;;;;;12.77;6.07;;;;;;;10.93;62.07;100476.80;1458994;88;22543;-86
2022/05/02 02:01:49;;;;;;;13.67;6.63;;;;;;;10.89;62.11;100474.13;1475496;88;21451;-86
2022/05/02 02:07:00;;;;;;;11.83;5.83;;;;;;;10.79;62.87;100472.37;1451516;88;21477;-86
2022/05/02 02:09:26;;;;;;;9.03;6.83;;;;;;;10.76;62.67;100476.64;1461532;88;21456;-87
2022/05/02 02:11:52;;;;;;;8.40;5.77;;;;;;;10.71;63.56;100469.62;1469143;88;22242;-85
2022/05/02 02:14:18;;;;;;;9.97;6.13;;;;;;;10.67;63.33;100467.40;1455910;88;21441;-84
2022/05/02 02:16:44;;;;;;;9.67;6.67;;;;;;;10.66;63.37;100465.75;1463522;88;21458;-84
2022/05/02 02:19:10;;;;;;;10.37;6.90;;;;;;;10.65;63.58;100466.73;1477517;87;21581;-85
2022/05/02 02:21:37;;;;;;;13.40;6.20;;;;;;;10.64;64.80;100463.23;1481545;88;21623;-85
2022/05/02 02:24:04;;;;;;;11.17;5.70;;;;;;;10.65;64.29;100458.80;1475330;88;21536;-85
2022/05/02 02:26:31;;;;;;;9.50;6.87;;;;;;;10.66;64.97;100461.28;1482816;88;21493;-85
2022/05/02 02:28:58;;;;;;;9.10;6.77;;;;;;;10.66;65.07;100459.12;1475855;86;21465;-85
2022/05/02 02:31:25;;;;;;;12.37;6.50;;;;;;;10.63;65.07;100462.90;1479896;88;21392;-84
2022/05/02 02:33:51;;;;;;;9.97;5.73;;;;;;;10.58;64.73;100464.66;1482039;88;21509;-85
2022/05/02 02:36:17;;;;;;;14.33;6.67;;;;;;;10.53;64.55;100466.06;1452353;88;22422;-85
2022/05/02 02:38:42;;;;;;;9.50;6.70;;;;;;;10.46;64.99;100459.70;1486694;88;21392;-84
2022/05/02 02:41:09;;;;;;;13.03;6.90;;;;;;;10.45;64.31;100464.67;1475085;88;21443;-83
2022/05/02 02:43:35;;;;;;;12.63;7.03;;;;;;;10.46;64.66;100470.30;1471288;88;21414;-83
2022/05/02 02:46:01;;;;;;;10.60;7.23;;;;;;;10.46;64.79;100465.00;1449888;88;21500;-83
2022/05/02 02:48:27;;;;;;;12.47;6.63;;;;;;;10.48;64.67;100471.81;1437349;88;21419;-83
2022/05/02 02:50:53;;;;;;;14.30;8.17;;;;;;;10.50;64.90;100467.22;1483273;88;21433;-83
2022/05/02 02:53:19;;;;;;;11.37;7.03;;;;;;;10.49;64.57;100463.38;1475730;88;21323;-84
2022/05/02 02:55:45;;;;;;;11.70;6.93;;;;;;;10.48;64.49;100463.87;1477347;88;21486;-84
2022/05/02 02:58:12;;;;;;;11.07;6.30;;;;;;;10.48;65.06;100463.05;1473692;88;21502;-84
2022/05/02 03:00:38;;;;;;;8.53;5.37;;;;;;;10.47;65.27;100464.87;1475956;88;21471;-84
2022/05/02 03:03:04;;;;;;;15.97;6.97;;;;;;;10.43;65.48;100458.19;1472417;88;22305;-84
2022/05/02 03:08:16;;;;;;;10.77;7.23;;;;;;;10.49;65.11;100463.38;1474516;88;22411;-84
2022/05/02 03:10:42;;;;;;;10.00;6.30;;;;;;;10.52;64.69;100465.23;1477527;88;21952;-85
2022/05/02 03:13:09;;;;;;;8.60;6.53;;;;;;;10.50;64.12;100462.39;1475486;88;22351;-85
2022/05/02 03:15:35;;;;;;;10.37;6.57;;;;;;;10.46;64.10;100464.50;1473532;88;21551;-85
2022/05/02 03:18:01;;;;;;;11.03;7.73;;;;;;;10.43;64.06;100467.45;1476993;87;22373;-85
2022/05/02 03:20:27;;;;;;;11.70;7.90;;;;;;;10.44;64.76;100466.95;1451502;88;21427;-85
2022/05/02 03:22:53;;;;;;;18.93;9.43;;;;;;;10.41;64.31;100467.24;1463555;88;21493;-86
2022/05/02 03:25:19;;;;;;;14.17;8.13;;;;;;;10.38;64.32;100467.87;1472291;88;21516;-85
2022/05/02 03:27:45;;;;;;;16.03;8.03;;;;;;;10.29;64.69;100464.78;1473794;88;21522;-86
2022/05/02 03:30:12;;;;;;;12.17;8.03;;;;;;;10.27;64.14;100465.44;1467370;88;22292;-86
2022/05/02 03:32:38;;;;;;;11.67;7.33;;;;;;;10.24;64.55;100469.66;1472702;88;21536;-85
2022/05/02 03:35:08;;;;;;;12.57;7.00;;;;;;;10.22;63.94;100461.52;1446761;88;21464;-86
2022/05/02 03:37:34;;;;;;;12.07;7.20;;;;;;;10.22;64.36;100462.34;1469700;88;21434;-84
2022/05/02 03:40:00;;;;;;;9.20;7.30;;;;;;;10.25;64.03;100474.45;1471859;88;22600;-84
2022/05/02 03:42:26;;;;;;;18.30;7.73;;;;;;;10.28;64.08;100471.55;1454724;88;21616;-85
2022/05/02 03:44:53;;;;;;;8.57;6.07;;;;;;;10.31;65.24;100469.94;1476818;88;21715;-84
2022/05/02 03:47:19;;;;;;;12.80;7.80;;;;;;;10.35;65.71;100468.16;1477029;88;22462;-85
2022/05/02 03:49:45;;;;;;;12.63;6.77;;;;;;;10.43;65.72;100467.94;1477834;88;22509;-86
2022/05/02 03:52:11;;;;;;;10.73;6.63;;;;;;;10.49;65.88;100468.67;1481184;88;21470;-85
2022/05/02 03:54:37;;;;;;;9.77;6.77;;;;;;;10.50;65.78;100472.52;1472063;88;22270;-85
2022/05/02 03:57:04;;;;;;;14.47;7.40;;;;;;;10.52;65.51;100475.00;1474045;88;21530;-85
2022/05/02 03:59:30;;;;;;;10.83;7.37;;;;;;;10.52;65.14;100473.17;1474255;88;22971;-85
2022/05/02 04:01:57;;;;;;;25.40;8.47;;;;;;;10.53;64.75;100475.33;1476085;88;21972;-85
2022/05/02 04:04:23;;;;;;;16.97;8.20;;;;;;;10.58;65.28;100481.02;1471515;88;21411;-85
2022/05/02 04:06:49;;;;;;;14.93;7.80;;;;;;;10.63;65.38;100476.13;1470919;88;21464;-85
2022/05/02 04:09:15;;;;;;;22.73;8.63;;;;;;;10.67;65.96;100474.84;1469497;88;21619;-84
2022/05/02 04:11:42;;;;;;;12.33;6.47;;;;;;;10.73;66.28;100482.69;1467186;88;22580;-85
2022/05/02 04:14:08;;;;;;;19.70;8.00;;;;;;;10.77;64.94;100475.64;1476819;88;22079;-85
2022/05/02 04:16:34;;;;;;;13.20;8.33;;;;;;;10.82;64.73;100477.86;1451678;88;22395;-86
2022/05/02 04:19:00;;;;;;;13.93;6.73;;;;;;;10.88;65.22;100471.14;1477809;88;21507;-85
2022/05/02 04:21:26;;;;;;;9.47;7.33;;;;;;;10.91;64.61;100476.14;1475537;88;21456;-85
2022/05/02 04:23:52;;;;;;;14.20;8.07;;;;;;;10.96;64.41;100477.83;1475743;88;22336;-85
2022/05/02 04:26:18;;;;;;;16.77;8.67;;;;;;;11.01;64.52;100480.87;1478655;88;21492;-86
2022/05/02 04:28:44;;;;;;;19.00;8.93;;;;;;;11.05;64.23;100479.61;1482273;88;21486;-84
2022/05/02 04:31:11;;;;;;;12.63;9.50;;;;;;;11.13;64.29;100484.96;1479109;88;21473;-84
2022/05/02 04:33:37;;;;;;;22.93;10.43;;;;;;;11.18;64.33;100484.03;1475922;86;21470;-84
2022/05/02 04:36:04;;;;;;;15.00;8.90;;;;;;;11.24;64.08;100486.07;1466454;88;21934;-85
2022/05/02 04:38:30;;;;;;;12.07;9.37;;;;;;;11.27;64.14;100475.17;1427008;88;21596;-85
2022/05/02 04:41:05;;;;;;;14.00;8.90;;;;;;;11.29;64.28;100483.81;1450576;88;23109;-87
2022/05/02 04:43:32;;;;;;;12.77;8.93;;;;;;;11.35;64.07;100482.38;1466070;88;21840;-87
2022/05/02 04:45:58;;;;;;;17.10;8.30;;;;;;;11.41;64.43;100482.27;1447628;88;21419;-87
2022/05/02 04:48:27;;;;;;;9.90;7.93;;;;;;;11.45;64.13;100481.82;1448480;88;21352;-87
2022/05/02 04:50:54;;;;;;;9.90;7.40;;;;;;;11.50;63.43;100478.70;1464607;88;21494;-88
2022/05/02 04:53:50;;;;;;;18.80;7.47;;;;;;;11.54;63.39;100485.38;1445681;88;23696;-87
2022/05/02 04:56:30;;;;;;;9.83;7.47;;;;;;;11.64;63.77;100482.13;1453876;88;22250;-86
2022/05/02 04:59:12;;;;;;;11.40;7.37;;;;;;;11.72;63.35;100486.18;1460899;88;21421;-84
2022/05/02 05:01:38;;;;;;;10.97;7.90;;;;;;;11.80;63.27;100487.25;1465917;88;21987;-87
2022/05/02 05:04:23;;;;;;;10.73;7.33;;;;;;;11.89;63.28;100486.34;1461628;88;21538;-86
2022/05/02 05:06:49;;;;;;;10.37;7.07;;;;;;;11.96;62.60;100481.57;1466338;88;21510;-84
2022/05/02 05:09:15;;;;;;;17.23;8.07;;;;;;;12.10;62.68;100489.47;1463114;88;22251;-85
2022/05/02 05:12:24;;;;;;;15.83;8.47;;;;;;;12.26;63.03;100491.90;1461434;88;21406;-86
2022/05/02 05:18:38;;;;;;;15.10;7.33;;;;;;;12.59;62.45;100497.70;1466934;88;21463;-82
2022/05/02 05:21:22;;;;;;;16.80;9.00;;;;;;;12.75;61.37;100493.47;1458214;88;21664;-81
2022/05/02 05:24:14;;;;;;;13.47;7.40;;;;;;;12.94;61.77;100498.50;1474347;88;21514;-81
2022/05/02 05:27:33;;;;;;;17.10;7.40;;;;;;;13.17;61.70;100495.23;1464483;88;21466;-83
2022/05/02 05:30:07;;;;;;;9.60;6.73;;;;;;;13.38;61.41;100499.65;1479263;88;21562;-81
2022/05/02 05:33:31;;;;;;;12.30;7.47;;;;;;;13.65;61.00;100496.34;1472806;88;21708;-81
2022/05/02 05:36:23;;;;;;;11.93;7.60;;;;;;;13.76;60.38;100494.69;1461584;88;22079;-83
2022/05/02 05:39:06;;;;;;;13.87;7.57;;;;;;;13.98;60.66;100501.13;1454873;88;21390;-83
2022/05/02 05:42:10;;;;;;;12.07;6.97;;;;;;;14.19;60.34;100495.30;1481504;88;21352;-84
2022/05/02 05:45:11;;;;;;;17.30;8.83;;;;;;;14.40;60.96;100497.41;1459507;88;22464;-85
2022/05/02 05:48:01;;;;;;;12.47;6.97;;;;;;;14.52;59.90;100490.73;1445846;89;21731;-83
2022/05/02 05:50:30;;;;;;;9.97;6.20;;;;;;;14.65;60.25;100495.53;1432931;91;21796;-83
2022/05/02 05:53:10;;;;;;;9.80;6.37;;;;;;;14.70;59.20;100494.49;1444104;88;21639;-84
2022/05/02 05:56:19;;;;;;;11.75;7.47;;;;;;;14.82;59.26;100493.12;1471202;88;21473;-84
2022/05/02 05:59:09;;;;;;;11.40;8.10;;;;;;;14.93;59.16;100496.39;1475215;88;21596;-82
2022/05/02 06:02:03;;;;;;;10.80;7.17;;;;;;;15.05;59.00;100489.19;1467474;88;21539;-84
2022/05/02 06:04:35;;;;;;;13.73;7.93;;;;;;;15.14;58.82;100488.63;1476286;86;21598;-84
2022/05/02 06:07:00;;;;;;;11.33;7.87;;;;;;;15.23;58.28;100491.57;1477796;88;21531;-84
2022/05/02 06:09:30;;;;;;;15.67;8.60;;;;;;;15.26;58.37;100489.88;1466510;88;21471;-83
2022/05/02 06:12:01;;;;;;;11.12;8.38;;;;;;;15.32;58.14;100494.50;1479105;88;21597;-83
2022/05/02 06:14:32;;;;;;;10.80;7.80;;;;;;;15.46;58.19;100493.42;1485084;88;21618;-83
2022/05/02 06:19:46;;;;;;;13.47;7.27;;;;;;;15.70;58.41;100491.09;1474085;88;21618;-83
2022/05/02 06:22:14;;;;;;;13.00;8.80;;;;;;;15.73;58.14;100488.89;1468375;87;21472;-84
2022/05/02 06:24:46;;;;;;;15.97;9.73;;;;;;;15.76;57.79;100488.53;1465469;88;21642;-84
2022/05/02 06:27:13;;;;;;;12.43;8.73;;;;;;;15.85;57.76;100485.80;1465286;88;21501;-83
2022/05/02 06:29:41;;;;;;;11.23;8.10;;;;;;;15.98;57.67;100488.17;1470011;88;22345;-84
2022/05/02 06:32:12;;;;;;;16.57;8.70;;;;;;;16.13;57.47;100484.19;1434792;88;21683;-83
2022/05/02 06:34:39;;;;;;;11.55;8.28;;;;;;;16.30;57.61;100490.70;1475328;88;21469;-83
2022/05/02 06:37:20;;;;;;;8.87;6.90;;;;;;;16.46;57.14;100491.36;1480471;88;21443;-83
2022/05/02 06:40:07;;;;;;;14.50;7.80;;;;;;;16.46;55.80;100491.87;1471169;88;21481;-83
2022/05/02 06:42:48;;;;;;;10.37;7.90;;;;;;;16.47;56.48;100488.17;1473902;88;21516;-83
2022/05/02 06:45:41;;;;;;;12.93;7.60;;;;;;;16.51;56.81;100486.78;1484096;87;21456;-83
2022/05/02 06:48:29;;;;;;;9.87;7.17;;;;;;;16.67;56.78;100491.11;1466808;88;21614;-81
2022/05/02 06:51:09;;;;;;;10.97;7.20;;;;;;;16.70;54.77;100488.89;1482605;88;21555;-81
2022/05/02 06:53:43;;;;;;;12.23;6.70;;;;;;;16.63;55.17;100485.31;1475392;88;21473;-81
2022/05/02 06:56:33;;;;;;;9.53;7.93;;;;;;;16.84;56.06;100491.77;1480338;88;21451;-80
2022/05/02 06:59:14;;;;;;;9.70;6.73;;;;;;;17.03;56.03;100485.84;1482706;88;21442;-80
2022/05/02 07:01:49;;;;;;;9.00;6.67;;;;;;;17.19;55.44;100486.61;1482692;88;21848;-80
2022/05/02 07:04:36;;;;;;;8.27;6.87;;;;;;;17.35;55.06;100483.70;1481509;88;21640;-80
2022/05/02 07:07:32;;;;;;;10.00;6.13;;;;;;;17.51;55.30;100491.46;1477174;88;22255;-81
2022/05/02 07:10:09;;;;;;;9.10;6.63;;;;;;;17.60;53.39;100476.92;1476775;88;21525;-81
2022/05/02 07:13:16;;;;;;;12.40;6.43;;;;;;;17.78;54.79;100486.37;1474643;88;21441;-81
2022/05/02 07:16:15;;;;;;;33.17;7.20;;;;;;;17.96;54.38;100486.74;1439300;89;21676;-81
2022/05/02 07:19:06;;;;;;;11.67;6.53;;;;;;;18.11;54.00;100487.16;1434839;89;21429;-80
2022/05/02 07:21:51;;;;;;;12.95;6.15;;;;;;;18.25;53.65;100487.56;1465768;88;21670;-81
2022/05/02 07:24:55;;;;;;;8.07;5.80;;;;;;;18.30;52.10;100482.45;1478125;88;21619;-81
2022/05/02 07:27:53;;;;;;;9.63;6.13;;;;;;;18.45;52.76;100482.33;1475181;88;21458;-81
2022/05/02 07:30:22;;;;;;;11.57;6.47;;;;;;;18.59;51.72;100484.56;1478188;88;21611;-81
2022/05/02 07:32:53;;;;;;;6.47;5.37;;;;;;;18.71;51.55;100481.63;1484027;86;21480;-81
2022/05/02 07:35:27;;;;;;;5.27;4.60;;;;;;;18.81;51.95;100484.78;1477244;87;23431;-81
2022/05/02 07:37:54;;;;;;;16.50;5.83;;;;;;;18.90;50.45;100483.59;1481415;88;22328;-82
2022/05/02 07:40:22;;;;;;;7.30;5.70;;;;;;;19.00;50.66;100484.55;1483490;88;21737;-81
2022/05/02 07:42:50;;;;;;;8.37;5.27;;;;;;;19.06;50.41;100485.60;1475971;88;22609;-81
2022/05/02 07:45:20;;;;;;;7.67;5.37;;;;;;;19.21;50.63;100479.55;1464138;88;21381;-81
2022/05/02 07:47:48;;;;;;;7.40;5.03;;;;;;;19.36;49.86;100479.36;1474232;88;21632;-81
2022/05/02 07:50:18;;;;;;;6.97;5.30;;;;;;;19.47;49.98;100480.11;1486434;88;22418;-81
2022/05/02 07:52:47;;;;;;;9.53;4.67;;;;;;;19.61;48.37;100479.61;1474041;88;21539;-81
2022/05/02 07:55:14;;;;;;;10.88;5.03;;;;;;;19.66;48.51;100470.98;1473989;88;21433;-82
2022/05/02 07:57:42;;;;;;;5.00;4.40;;;;;;;19.83;48.51;100472.22;1462041;88;21626;-81
2022/05/02 08:00:12;;;;;;;9.23;5.15;;;;;;;19.94;47.48;100474.77;1476562;88;21465;-81
2022/05/02 08:02:38;;;;;;;5.75;4.42;;;;;;;20.08;47.47;100475.59;1474009;88;21485;-82
2022/05/02 08:05:05;;;;;;;8.05;4.10;;;;;;;20.04;46.17;100467.13;1475525;88;21419;-81
2022/05/02 08:07:38;;;;;;;5.95;4.00;;;;;;;20.12;45.64;100472.29;1480354;88;21537;-81
2022/05/02 08:10:42;;;;;;;8.03;4.05;;;;;;;20.17;46.37;100471.64;1457861;88;21495;-81
2022/05/02 08:13:33;;;;;;;8.13;4.47;;;;;;;20.34;46.73;100474.72;1473233;88;21458;-82
2022/05/02 08:16:05;;;;;;;6.97;3.67;;;;;;;20.53;46.12;100468.50;1475849;88;21407;-82
2022/05/02 08:18:52;;;;;;;8.33;4.42;;;;;;;20.73;45.84;100472.46;1474669;88;21596;-81
2022/05/02 08:21:35;;;;;;;5.87;4.42;;;;;;;20.89;44.21;100468.47;1476784;88;21572;-82
2022/05/02 08:27:39;;;;;;;11.57;4.35;;;;;;;21.30;44.92;100461.81;1471390;88;22484;-81
2022/05/02 08:30:26;;;;;;;5.95;3.92;;;;;;;21.41;44.05;100459.81;1475328;88;22418;-81
2022/05/02 08:33:04;;;;;;;4.67;4.00;;;;;;;21.43;43.59;100457.70;1475521;88;21422;-82
2022/05/02 08:36:01;;;;;;;5.55;4.15;;;;;;;21.57;43.44;100461.13;1483418;88;21396;-81
2022/05/02 08:38:58;;;;;;;6.47;4.12;;;;;;;21.73;43.14;100450.34;1469805;88;22509;-81
2022/05/02 08:41:45;;;;;;;5.50;3.80;;;;;;;21.73;41.40;100451.16;1473595;88;22479;-82
2022/05/02 08:44:38;;;;;;;5.92;4.05;;;;;;;21.88;42.69;100452.16;1476657;88;21470;-81
2022/05/02 08:47:47;;;;;;;4.67;3.98;;;;;;;22.04;41.93;100453.48;1476993;88;21692;-81
2022/05/02 08:50:24;;;;;;;6.70;3.87;;;;;;;22.19;41.14;100450.45;1479546;88;21480;-81
2022/05/02 08:53:28;;;;;;;5.12;3.92;;;;;;;22.35;40.87;100446.33;1476434;88;21599;-82
2022/05/02 08:56:26;;;;;;;4.97;3.72;;;;;;;22.43;40.03;100440.11;1478044;88;21470;-82
2022/05/02 08:59:19;;;;;;;5.60;3.83;;;;;;;22.55;39.92;100442.05;1478652;88;21532;-81
2022/05/02 09:02:26;;;;;;;8.18;4.05;;;;;;;22.72;40.18;100440.38;1476810;88;22357;-79
2022/05/02 09:05:09;;;;;;;7.65;3.58;;;;;;;22.71;38.06;100429.30;1478588;88;21633;-81
2022/05/02 09:07:59;;;;;;;20.85;3.37;;;;;;;22.85;39.64;100433.48;1474554;88;21425;-83
2022/05/02 09:10:42;;;;;;;4.30;3.33;;;;;;;22.96;39.63;100426.52;1470993;88;21570;-82
2022/05/02 09:13:32;;;;;;;4.85;3.27;;;;;;;23.06;39.23;100430.00;1428536;91;21571;-82
2022/05/02 09:16:46;;;;;;;5.75;3.77;;;;;;;22.78;38.11;100433.26;1462847;88;21582;-82
2022/05/02 09:19:38;;;;;;;8.98;4.20;;;;;;;22.66;38.94;100427.81;1457937;88;23489;-82
2022/05/02 09:22:31;;;;;;;4.17;3.02;;;;;;;22.48;39.54;100425.97;1472861;88;22621;-83
2022/05/02 09:25:12;;;;;;;4.15;3.75;;;;;;;22.40;40.31;100365.06;1480928;88;21532;-83
2022/05/02 09:27:55;;;;;;;4.28;3.70;;;;;;;22.66;39.52;100406.23;1465040;88;22404;-82
2022/05/02 09:30:46;;;;;;;7.60;3.65;;;;;;;22.92;38.60;100422.05;1481962;88;21507;-83
2022/05/02 09:33:56;;;;;;;5.80;3.98;;;;;;;22.77;37.75;100409.51;1464485;88;22198;-83
2022/05/02 09:36:39;;;;;;;6.53;3.47;;;;;;;22.98;38.19;100404.97;1473225;88;21514;-83
2022/05/02 09:39:46;;;;;;;3.08;2.60;;;;;;;23.16;37.70;100408.66;1455431;88;21995;-83
2022/05/02 09:42:58;;;;;;;6.67;3.72;;;;;;;23.20;35.77;100407.16;1485066;88;21546;-83
2022/05/02 09:52:14;;;;;;;6.20;4.25;;;;;;;23.69;38.33;100396.18;1464327;88;21426;-83
2022/05/02 09:58:11;;;;;;;5.95;3.50;;;;;;;24.17;36.25;100387.83;1462444;88;21872;-82
2022/05/02 10:01:06;;;;;;;4.35;3.55;;;;;;;24.07;34.30;100382.19;1481990;88;21576;-83
2022/05/02 10:03:49;;;;;;;6.75;3.37;;;;;;;24.18;35.06;100380.53;1429145;90;21435;-83
2022/05/02 10:06:33;;;;;;;3.35;2.90;;;;;;;24.31;35.35;100381.09;1436376;90;21473;-83
2022/05/02 10:09:06;;;;;;;5.95;3.05;;;;;;;24.53;34.39;100373.69;1475319;88;22484;-83
2022/05/02 10:11:53;;;;;;;4.40;2.70;;;;;;;24.43;32.09;100366.75;1474439;88;21642;-83
2022/05/02 10:14:36;;;;;;;4.15;3.15;;;;;;;24.44;33.44;100357.56;1469323;88;22368;-83
2022/05/02 10:17:17;;;;;;;5.03;2.40;;;;;;;24.70;33.94;100362.38;1462760;88;21385;-84
2022/05/02 10:20:16;;;;;;;6.17;2.90;;;;;;;24.61;32.45;100359.78;1437383;89;22391;-84
2022/05/02 10:23:21;;;;;;;3.58;2.22;;;;;;;24.68;33.32;100353.67;1452942;89;21537;-85
2022/05/02 10:26:28;;;;;;;5.92;2.90;;;;;;;24.54;32.91;100350.47;1466952;88;21375;-82
2022/05/02 10:29:26;;;;;;;4.00;3.45;;;;;;;24.48;33.00;100353.30;1467661;88;21594;-84
2022/05/02 10:32:05;;;;;;;3.47;2.77;;;;;;;24.15;33.12;100348.56;1435813;90;21569;-84
2022/05/02 10:34:36;;;;;;;3.70;2.72;;;;;;;23.99;33.58;100340.12;1430801;91;21542;-84
2022/05/02 10:37:06;;;;;;;2.87;2.42;;;;;;;23.86;34.03;100333.11;1469828;88;21322;-83
2022/05/02 10:39:47;;;;;;;4.97;2.72;;;;;;;23.79;33.69;100332.93;1468280;88;21348;-83
2022/05/02 10:42:19;;;;;;;3.75;2.25;;;;;;;23.65;33.30;100331.00;1474279;88;21348;-83
2022/05/02 10:45:01;;;;;;;7.95;2.85;;;;;;;23.55;33.51;100328.05;1470047;88;21454;-83
2022/05/02 10:47:29;;;;;;;10.40;2.92;;;;;;;23.46;33.61;100326.77;1465367;88;21397;-83
2022/05/02 10:50:06;;;;;;;3.17;2.17;;;;;;;23.39;34.06;100322.31;1474888;88;21695;-83
2022/05/02 10:53:08;;;;;;;6.95;2.70;;;;;;;23.18;33.17;100318.81;1459028;88;22761;-84
2022/05/02 10:55:39;;;;;;;2.90;2.58;;;;;;;23.10;33.58;100318.66;1467438;88;21345;-82
2022/05/02 10:58:11;;;;;;;5.42;2.85;;;;;;;23.01;33.73;100317.33;1478484;88;21521;-83
2022/05/02 11:01:17;;;;;;;4.80;2.35;;;;;;;23.03;34.85;100317.11;1477305;88;21486;-83
2022/05/02 11:03:50;;;;;;;9.90;2.77;;;;;;;23.08;34.45;100314.54;1479236;88;21459;-83
2022/05/02 11:06:47;;;;;;;4.28;2.77;;;;;;;23.10;34.18;100313.25;1476349;88;21570;-83
2022/05/02 11:09:24;;;;;;;3.80;2.83;;;;;;;23.03;33.56;100311.71;1450289;89;21497;-83
2022/05/02 11:11:51;;;;;;;2.65;2.35;;;;;;;23.01;33.27;100309.23;1484811;88;22447;-83
2022/05/02 11:14:53;;;;;;;3.62;2.40;;;;;;;22.98;33.68;100311.86;1472825;88;21420;-83
2022/05/02 11:17:40;;;;;;;2.27;2.05;;;;;;;22.97;33.37;100312.11;1475851;88;23497;-83
2022/05/02 11:20:46;;;;;;;4.25;2.10;;;;;;;22.98;33.14;100313.74;1455252;88;21510;-82
2022/05/02 11:23:37;;;;;;;2.52;2.33;;;;;;;22.86;32.99;100313.69;1469611;88;21405;-83
2022/05/02 11:26:33;;;;;;;7.28;2.85;;;;;;;22.76;33.18;100320.19;1468422;88;21369;-83
2022/05/02 11:29:40;;;;;;;13.70;3.47;;;;;;;22.70;33.51;100326.48;1472987;88;21382;-82
2022/05/02 11:32:33;;;;;;;5.92;3.42;;;;;;;22.63;33.38;100325.23;1473875;87;21333;-83
2022/05/02 11:35:05;;;;;;;20.85;3.37;;;;;;;22.31;31.99;100325.98;1452284;87;22489;-83
2022/05/02 11:38:09;;;;;;;6.85;2.80;;;;;;;22.17;34.32;100332.56;1445079;88;21435;-83
2022/05/02 11:40:49;;;;;;;62.70;4.72;;;;;;;21.68;35.13;100333.02;1436943;90;21604;-82
2022/05/02 11:43:22;;;;;;;11.40;1.80;;;;;;;20.67;34.40;100336.17;1448185;88;23742;-83
2022/05/02 11:46:24;;;;;;;11.50;1.92;;;;;;;20.15;32.34;100334.84;1448548;86;21740;-80
2022/05/02 11:49:19;;;;;;;3.30;1.57;;;;;;;19.78;31.41;100334.53;1435328;91;21566;-81
2022/05/02 11:51:53;;;;;;;2.98;1.50;;;;;;;19.38;32.68;100344.48;1430858;89;21544;-81
2022/05/02 11:54:35;;;;;;;6.37;1.72;;;;;;;19.14;34.69;100330.66;1426868;90;21536;-81
2022/05/02 11:57:17;;;;;;;4.67;2.22;;;;;;;18.99;33.63;100338.58;1429259;91;22280;-79
2022/05/02 12:00:11;;;;;;;4.63;1.97;;;;;;;19.05;32.82;100341.28;1434286;89;21637;-80
2022/05/02 12:02:53;;;;;;;2.00;1.32;;;;;;;19.27;35.08;100343.23;1440672;91;21408;-80
2022/05/02 12:05:24;;;;;;;3.13;1.40;;;;;;;19.28;34.51;100335.52;1419859;91;21504;-81
2022/05/02 12:07:56;;;;;;;2.37;1.57;;;;;;;19.16;33.33;100333.11;1435209;91;21511;-82
2022/05/02 12:10:42;;;;;;;2.30;1.63;;;;;;;19.22;34.14;100326.95;1429711;91;21432;-80
2022/05/02 12:13:12;;;;;;;2.23;1.53;;;;;;;19.24;35.34;100331.58;1423184;91;21668;-81
2022/05/02 12:16:00;;;;;;;2.37;1.35;;;;;;;19.19;37.36;100340.78;1430593;90;21537;-81
2022/05/02 12:18:50;;;;;;;6.23;2.30;;;;;;;19.19;38.93;100342.13;1430495;90;21497;-81
2022/05/02 12:21:31;;;;;;;5.58;2.00;;;;;;;19.20;37.39;100342.42;1440237;91;21881;-79
2022/05/02 12:24:00;;;;;;;2.00;1.80;;;;;;;19.19;37.36;100347.48;1429495;91;22480;-83
2022/05/02 12:26:28;;;;;;;5.03;1.70;;;;;;;19.16;35.98;100341.16;1429158;90;21377;-85
2022/05/02 12:28:59;;;;;;;10.03;1.80;;;;;;;19.29;36.49;100340.36;1409662;91;21398;-84
2022/05/02 12:31:28;;;;;;;2.70;1.60;;;;;;;19.34;36.78;100342.73;1435229;91;21571;-84